sensor_id;sensor_type;location;lat;lon;timestamp;temperature;humidity
61351;DHT22;47119;49.130;9.218;2023-02-27T00:01:32;7.48;51.37
61351;DHT22;47119;49.130;9.218;2023-02-27T00:04:03;7.59;51.25
61351;DHT22;47119;49.130;9.218;2023-02-27T00:06:30;7.65;51.13
61351;DHT22;47119;49.130;9.218;2023-02-27T00:09:00;7.69;50.85
61351;DHT22;47119;49.130;9.218;2023-02-27T00:11:27;7.74;51.08
61351;DHT22;47119;49.130;9.218;2023-02-27T00:13:54;7.69;50.99
61351;DHT22;47119;49.130;9.218;2023-02-27T00:16:21;7.62;51.44
61351;DHT22;47119;49.130;9.218;2023-02-27T00:18:50;7.76;51.69
61351;DHT22;47119;49.130;9.218;2023-02-27T00:21:17;7.71;51.03
61351;DHT22;47119;49.130;9.218;2023-02-27T00:23:44;7.81;51.50
61351;DHT22;47119;49.130;9.218;2023-02-27T00:26:11;7.81;51.56
61351;DHT22;47119;49.130;9.218;2023-02-27T00:28:39;7.68;50.76
61351;DHT22;47119;49.130;9.218;2023-02-27T00:31:06;7.65;50.89
61351;DHT22;47119;49.130;9.218;2023-02-27T00:33:33;7.72;51.24
61351;DHT22;47119;49.130;9.218;2023-02-27T00:36:01;7.78;51.01
61351;DHT22;47119;49.130;9.218;2023-02-27T00:38:29;7.52;51.44
61351;DHT22;47119;49.130;9.218;2023-02-27T00:40:56;7.65;51.25
61351;DHT22;47119;49.130;9.218;2023-02-27T00:43:23;7.52;51.40
61351;DHT22;47119;49.130;9.218;2023-02-27T00:45:51;7.59;51.79
61351;DHT22;47119;49.130;9.218;2023-02-27T00:48:18;7.68;51.50
61351;DHT22;47119;49.130;9.218;2023-02-27T00:50:50;7.62;51.14
61351;DHT22;47119;49.130;9.218;2023-02-27T00:53:21;7.69;51.10
61351;DHT22;47119;49.130;9.218;2023-02-27T00:55:49;7.58;51.15
61351;DHT22;47119;49.130;9.218;2023-02-27T00:58:18;7.59;51.22
61351;DHT22;47119;49.130;9.218;2023-02-27T01:00:46;7.50;51.54
61351;DHT22;47119;49.130;9.218;2023-02-27T01:03:13;7.57;50.95
61351;DHT22;47119;49.130;9.218;2023-02-27T01:05:40;7.64;50.89
61351;DHT22;47119;49.130;9.218;2023-02-27T01:08:07;7.57;50.73
61351;DHT22;47119;49.130;9.218;2023-02-27T01:10:36;7.66;51.14
61351;DHT22;47119;49.130;9.218;2023-02-27T01:13:05;7.59;51.18
61351;DHT22;47119;49.130;9.218;2023-02-27T01:15:32;7.65;51.41
61351;DHT22;47119;49.130;9.218;2023-02-27T01:18:00;7.65;50.90
61351;DHT22;47119;49.130;9.218;2023-02-27T01:20:27;7.52;51.11
61351;DHT22;47119;49.130;9.218;2023-02-27T01:22:56;7.52;50.74
61351;DHT22;47119;49.130;9.218;2023-02-27T01:25:24;7.58;51.37
61351;DHT22;47119;49.130;9.218;2023-02-27T01:27:52;7.51;51.19
61351;DHT22;47119;49.130;9.218;2023-02-27T01:30:21;7.58;50.77
61351;DHT22;47119;49.130;9.218;2023-02-27T01:32:51;7.57;50.72
61351;DHT22;47119;49.130;9.218;2023-02-27T01:35:20;7.50;50.79
61351;DHT22;47119;49.130;9.218;2023-02-27T01:37:50;7.58;50.84
61351;DHT22;47119;49.130;9.218;2023-02-27T01:40:22;7.37;51.19
61351;DHT22;47119;49.130;9.218;2023-02-27T01:42:49;7.44;50.96
61351;DHT22;47119;49.130;9.218;2023-02-27T01:45:31;7.52;50.93
61351;DHT22;47119;49.130;9.218;2023-02-27T01:48:05;7.54;51.04
61351;DHT22;47119;49.130;9.218;2023-02-27T01:50:41;7.52;51.23
61351;DHT22;47119;49.130;9.218;2023-02-27T01:53:14;7.16;51.87
61351;DHT22;47119;49.130;9.218;2023-02-27T01:55:47;7.14;51.98
61351;DHT22;47119;49.130;9.218;2023-02-27T01:58:15;7.34;51.69
61351;DHT22;47119;49.130;9.218;2023-02-27T02:00:45;7.43;51.51
61351;DHT22;47119;49.130;9.218;2023-02-27T02:03:20;7.34;51.50
61351;DHT22;47119;49.130;9.218;2023-02-27T02:05:56;7.32;50.94
61351;DHT22;47119;49.130;9.218;2023-02-27T02:08:26;7.31;51.14
61351;DHT22;47119;49.130;9.218;2023-02-27T02:10:57;7.23;51.83
61351;DHT22;47119;49.130;9.218;2023-02-27T02:13:25;7.38;51.51
61351;DHT22;47119;49.130;9.218;2023-02-27T02:16:03;7.30;51.27
61351;DHT22;47119;49.130;9.218;2023-02-27T02:18:54;7.21;51.97
61351;DHT22;47119;49.130;9.218;2023-02-27T02:28:42;7.34;52.38
61351;DHT22;47119;49.130;9.218;2023-02-27T02:31:48;7.50;52.25
61351;DHT22;47119;49.130;9.218;2023-02-27T02:35:06;7.50;51.61
61351;DHT22;47119;49.130;9.218;2023-02-27T02:38:31;7.43;51.59
61351;DHT22;47119;49.130;9.218;2023-02-27T02:41:23;7.37;52.13
61351;DHT22;47119;49.130;9.218;2023-02-27T02:44:07;7.48;51.66
61351;DHT22;47119;49.130;9.218;2023-02-27T02:46:53;7.35;51.32
61351;DHT22;47119;49.130;9.218;2023-02-27T02:49:38;7.28;51.96
61351;DHT22;47119;49.130;9.218;2023-02-27T02:52:21;7.35;51.42
61351;DHT22;47119;49.130;9.218;2023-02-27T02:55:02;7.34;51.59
61351;DHT22;47119;49.130;9.218;2023-02-27T02:57:36;7.26;51.49
61351;DHT22;47119;49.130;9.218;2023-02-27T03:00:10;7.26;51.83
61351;DHT22;47119;49.130;9.218;2023-02-27T03:02:44;7.06;52.00
61351;DHT22;47119;49.130;9.218;2023-02-27T03:05:22;7.21;52.12
61351;DHT22;47119;49.130;9.218;2023-02-27T03:07:58;7.17;51.83
61351;DHT22;47119;49.130;9.218;2023-02-27T03:10:34;6.97;52.03
61351;DHT22;47119;49.130;9.218;2023-02-27T03:13:11;6.83;51.81
61351;DHT22;47119;49.130;9.218;2023-02-27T03:15:50;6.86;52.54
61351;DHT22;47119;49.130;9.218;2023-02-27T03:18:27;7.00;52.47
61351;DHT22;47119;49.130;9.218;2023-02-27T03:21:08;7.01;52.38
61351;DHT22;47119;49.130;9.218;2023-02-27T03:23:44;7.04;51.97
61351;DHT22;47119;49.130;9.218;2023-02-27T03:26:17;7.08;52.38
61351;DHT22;47119;49.130;9.218;2023-02-27T03:28:53;7.03;52.57
61351;DHT22;47119;49.130;9.218;2023-02-27T03:31:32;7.01;52.61
61351;DHT22;47119;49.130;9.218;2023-02-27T03:34:15;6.95;52.30
61351;DHT22;47119;49.130;9.218;2023-02-27T03:36:54;6.95;53.14
61351;DHT22;47119;49.130;9.218;2023-02-27T03:39:42;7.27;52.58
61351;DHT22;47119;49.130;9.218;2023-02-27T03:42:24;7.43;52.73
61351;DHT22;47119;49.130;9.218;2023-02-27T03:45:20;7.58;51.75
61351;DHT22;47119;49.130;9.218;2023-02-27T03:47:54;7.48;51.52
61351;DHT22;47119;49.130;9.218;2023-02-27T03:50:24;7.57;52.20
61351;DHT22;47119;49.130;9.218;2023-02-27T03:52:52;7.65;51.89
61351;DHT22;47119;49.130;9.218;2023-02-27T03:55:22;7.64;51.79
61351;DHT22;47119;49.130;9.218;2023-02-27T03:57:55;7.55;51.90
61351;DHT22;47119;49.130;9.218;2023-02-27T04:00:24;7.41;51.74
61351;DHT22;47119;49.130;9.218;2023-02-27T04:02:56;7.54;51.69
61351;DHT22;47119;49.130;9.218;2023-02-27T04:05:29;7.64;51.40
61351;DHT22;47119;49.130;9.218;2023-02-27T04:08:35;7.58;52.09
61351;DHT22;47119;49.130;9.218;2023-02-27T04:11:26;7.57;52.40
61351;DHT22;47119;49.130;9.218;2023-02-27T04:14:14;7.34;51.71
61351;DHT22;47119;49.130;9.218;2023-02-27T04:16:57;7.32;52.50
61351;DHT22;47119;49.130;9.218;2023-02-27T04:19:48;7.18;51.83
61351;DHT22;47119;49.130;9.218;2023-02-27T04:22:34;7.18;52.29
61351;DHT22;47119;49.130;9.218;2023-02-27T04:25:23;7.43;51.64
61351;DHT22;47119;49.130;9.218;2023-02-27T04:28:05;7.06;51.82
61351;DHT22;47119;49.130;9.218;2023-02-27T04:30:53;7.20;51.39
61351;DHT22;47119;49.130;9.218;2023-02-27T04:33:33;7.06;50.64
61351;DHT22;47119;49.130;9.218;2023-02-27T04:36:10;7.08;50.94
61351;DHT22;47119;49.130;9.218;2023-02-27T04:38:52;7.04;50.62
61351;DHT22;47119;49.130;9.218;2023-02-27T04:41:32;7.23;50.94
61351;DHT22;47119;49.130;9.218;2023-02-27T04:44:06;7.07;50.52
61351;DHT22;47119;49.130;9.218;2023-02-27T04:46:47;6.96;50.92
61351;DHT22;47119;49.130;9.218;2023-02-27T04:49:20;7.06;50.92
61351;DHT22;47119;49.130;9.218;2023-02-27T04:51:52;7.04;51.20
61351;DHT22;47119;49.130;9.218;2023-02-27T04:54:26;6.85;51.03
61351;DHT22;47119;49.130;9.218;2023-02-27T04:57:01;6.95;51.58
61351;DHT22;47119;49.130;9.218;2023-02-27T04:59:37;6.95;51.84
61351;DHT22;47119;49.130;9.218;2023-02-27T05:02:09;6.99;51.80
61351;DHT22;47119;49.130;9.218;2023-02-27T05:04:44;6.97;52.66
61351;DHT22;47119;49.130;9.218;2023-02-27T05:07:16;6.92;52.36
61351;DHT22;47119;49.130;9.218;2023-02-27T05:09:53;7.10;51.65
61351;DHT22;47119;49.130;9.218;2023-02-27T05:12:27;7.17;52.08
61351;DHT22;47119;49.130;9.218;2023-02-27T05:15:01;6.99;52.35
61351;DHT22;47119;49.130;9.218;2023-02-27T05:17:39;7.03;51.62
61351;DHT22;47119;49.130;9.218;2023-02-27T05:20:11;7.16;52.11
61351;DHT22;47119;49.130;9.218;2023-02-27T05:22:44;7.18;51.60
61351;DHT22;47119;49.130;9.218;2023-02-27T05:25:27;6.92;52.33
61351;DHT22;47119;49.130;9.218;2023-02-27T05:28:03;6.90;51.22
61351;DHT22;47119;49.130;9.218;2023-02-27T05:30:37;6.87;51.28
61351;DHT22;47119;49.130;9.218;2023-02-27T05:33:19;6.92;51.35
61351;DHT22;47119;49.130;9.218;2023-02-27T05:36:01;6.64;51.47
61351;DHT22;47119;49.130;9.218;2023-02-27T05:38:38;6.77;51.61
61351;DHT22;47119;49.130;9.218;2023-02-27T05:41:10;6.76;52.52
61351;DHT22;47119;49.130;9.218;2023-02-27T05:43:43;6.72;51.33
61351;DHT22;47119;49.130;9.218;2023-02-27T05:46:19;6.59;51.48
61351;DHT22;47119;49.130;9.218;2023-02-27T05:48:53;6.80;51.73
61351;DHT22;47119;49.130;9.218;2023-02-27T05:51:25;6.68;51.68
61351;DHT22;47119;49.130;9.218;2023-02-27T05:53:59;6.85;51.35
61351;DHT22;47119;49.130;9.218;2023-02-27T05:56:35;6.65;51.51
61351;DHT22;47119;49.130;9.218;2023-02-27T05:59:07;6.73;51.53
61351;DHT22;47119;49.130;9.218;2023-02-27T06:01:41;6.85;51.34
61351;DHT22;47119;49.130;9.218;2023-02-27T06:04:10;6.96;51.18
61351;DHT22;47119;49.130;9.218;2023-02-27T06:06:40;6.62;52.02
61351;DHT22;47119;49.130;9.218;2023-02-27T06:09:09;6.86;52.00
61351;DHT22;47119;49.130;9.218;2023-02-27T06:11:36;6.89;51.89
61351;DHT22;47119;49.130;9.218;2023-02-27T06:14:06;6.99;51.49
61351;DHT22;47119;49.130;9.218;2023-02-27T06:16:33;6.61;51.20
61351;DHT22;47119;49.130;9.218;2023-02-27T06:19:02;6.58;52.18
61351;DHT22;47119;49.130;9.218;2023-02-27T06:21:31;6.61;51.78
61351;DHT22;47119;49.130;9.218;2023-02-27T06:23:58;6.58;52.30
61351;DHT22;47119;49.130;9.218;2023-02-27T06:26:27;6.95;51.84
61351;DHT22;47119;49.130;9.218;2023-02-27T06:28:54;6.76;51.11
61351;DHT22;47119;49.130;9.218;2023-02-27T06:31:21;6.59;51.90
61351;DHT22;47119;49.130;9.218;2023-02-27T06:33:51;6.80;51.82
61351;DHT22;47119;49.130;9.218;2023-02-27T06:36:22;6.68;51.10
61351;DHT22;47119;49.130;9.218;2023-02-27T06:38:51;6.87;51.32
61351;DHT22;47119;49.130;9.218;2023-02-27T06:41:18;6.65;50.66
61351;DHT22;47119;49.130;9.218;2023-02-27T06:43:45;6.79;50.93
61351;DHT22;47119;49.130;9.218;2023-02-27T06:46:12;6.90;50.85
61351;DHT22;47119;49.130;9.218;2023-02-27T06:48:39;6.82;51.24
61351;DHT22;47119;49.130;9.218;2023-02-27T06:51:06;6.87;50.71
61351;DHT22;47119;49.130;9.218;2023-02-27T06:53:33;6.96;51.02
61351;DHT22;47119;49.130;9.218;2023-02-27T06:56:02;6.95;50.86
61351;DHT22;47119;49.130;9.218;2023-02-27T06:58:29;6.77;50.63
61351;DHT22;47119;49.130;9.218;2023-02-27T07:00:57;6.58;51.56
61351;DHT22;47119;49.130;9.218;2023-02-27T07:03:27;6.77;50.90
61351;DHT22;47119;49.130;9.218;2023-02-27T07:05:56;6.76;50.85
61351;DHT22;47119;49.130;9.218;2023-02-27T07:08:23;6.82;51.38
61351;DHT22;47119;49.130;9.218;2023-02-27T07:10:51;6.76;51.63
61351;DHT22;47119;49.130;9.218;2023-02-27T07:13:19;6.97;52.02
61351;DHT22;47119;49.130;9.218;2023-02-27T07:15:47;6.96;51.73
61351;DHT22;47119;49.130;9.218;2023-02-27T07:18:14;7.06;51.24
61351;DHT22;47119;49.130;9.218;2023-02-27T07:20:43;7.10;51.28
61351;DHT22;47119;49.130;9.218;2023-02-27T07:23:13;7.14;51.41
61351;DHT22;47119;49.130;9.218;2023-02-27T07:25:40;7.17;51.60
61351;DHT22;47119;49.130;9.218;2023-02-27T07:28:10;7.31;51.19
61351;DHT22;47119;49.130;9.218;2023-02-27T07:30:38;7.23;50.97
61351;DHT22;47119;49.130;9.218;2023-02-27T07:33:06;7.21;51.17
61351;DHT22;47119;49.130;9.218;2023-02-27T07:35:35;6.99;51.34
61351;DHT22;47119;49.130;9.218;2023-02-27T07:38:03;7.06;50.91
61351;DHT22;47119;49.130;9.218;2023-02-27T07:40:30;7.01;50.74
61351;DHT22;47119;49.130;9.218;2023-02-27T07:42:57;7.11;50.72
61351;DHT22;47119;49.130;9.218;2023-02-27T07:45:26;6.86;50.68
61351;DHT22;47119;49.130;9.218;2023-02-27T07:47:57;6.89;50.59
61351;DHT22;47119;49.130;9.218;2023-02-27T07:50:24;6.93;51.11
61351;DHT22;47119;49.130;9.218;2023-02-27T07:52:52;7.18;50.88
61351;DHT22;47119;49.130;9.218;2023-02-27T07:55:21;7.17;50.87
61351;DHT22;47119;49.130;9.218;2023-02-27T07:57:48;6.92;50.76
61351;DHT22;47119;49.130;9.218;2023-02-27T08:00:25;6.75;50.54
61351;DHT22;47119;49.130;9.218;2023-02-27T08:03:47;6.99;50.88
61351;DHT22;47119;49.130;9.218;2023-02-27T08:10:42;6.89;50.52
61351;DHT22;47119;49.130;9.218;2023-02-27T08:13:19;7.13;50.75
61351;DHT22;47119;49.130;9.218;2023-02-27T08:15:56;7.28;50.73
61351;DHT22;47119;49.130;9.218;2023-02-27T08:18:24;7.21;50.75
61351;DHT22;47119;49.130;9.218;2023-02-27T08:20:54;7.31;51.16
61351;DHT22;47119;49.130;9.218;2023-02-27T08:23:22;7.10;50.10
61351;DHT22;47119;49.130;9.218;2023-02-27T08:25:49;7.00;50.34
61351;DHT22;47119;49.130;9.218;2023-02-27T08:28:20;7.17;51.05
61351;DHT22;47119;49.130;9.218;2023-02-27T08:30:50;7.11;50.28
61351;DHT22;47119;49.130;9.218;2023-02-27T08:33:20;7.30;49.96
61351;DHT22;47119;49.130;9.218;2023-02-27T08:35:49;7.37;50.31
61351;DHT22;47119;49.130;9.218;2023-02-27T08:38:26;7.30;49.10
61351;DHT22;47119;49.130;9.218;2023-02-27T08:40:56;6.99;49.82
61351;DHT22;47119;49.130;9.218;2023-02-27T08:43:24;6.82;49.84
61351;DHT22;47119;49.130;9.218;2023-02-27T08:45:51;7.11;49.93
61351;DHT22;47119;49.130;9.218;2023-02-27T08:48:23;7.27;49.92
61351;DHT22;47119;49.130;9.218;2023-02-27T08:51:42;7.08;50.10
61351;DHT22;47119;49.130;9.218;2023-02-27T08:54:59;7.11;49.89
61351;DHT22;47119;49.130;9.218;2023-02-27T08:57:35;7.16;49.64
61351;DHT22;47119;49.130;9.218;2023-02-27T09:00:07;7.11;49.48
61351;DHT22;47119;49.130;9.218;2023-02-27T09:02:42;7.06;49.49
61351;DHT22;47119;49.130;9.218;2023-02-27T09:05:42;7.16;49.11
61351;DHT22;47119;49.130;9.218;2023-02-27T10:35:59;7.83;47.41
61351;DHT22;47119;49.130;9.218;2023-02-27T10:38:31;7.86;47.33
61351;DHT22;47119;49.130;9.218;2023-02-27T10:41:05;7.88;47.29
61351;DHT22;47119;49.130;9.218;2023-02-27T10:43:38;7.69;46.74
61351;DHT22;47119;49.130;9.218;2023-02-27T10:46:13;7.81;47.30
61351;DHT22;47119;49.130;9.218;2023-02-27T10:48:42;7.89;47.23
61351;DHT22;47119;49.130;9.218;2023-02-27T10:51:24;7.97;47.66
61351;DHT22;47119;49.130;9.218;2023-02-27T10:54:13;7.96;46.98
61351;DHT22;47119;49.130;9.218;2023-02-27T10:56:49;8.00;47.52
61351;DHT22;47119;49.130;9.218;2023-02-27T10:59:20;8.03;47.63
61351;DHT22;47119;49.130;9.218;2023-02-27T11:01:53;8.05;47.36
61351;DHT22;47119;49.130;9.218;2023-02-27T11:04:24;8.13;47.43
61351;DHT22;47119;49.130;9.218;2023-02-27T11:06:55;8.02;47.05
61351;DHT22;47119;49.130;9.218;2023-02-27T11:09:26;7.81;47.11
61351;DHT22;47119;49.130;9.218;2023-02-27T11:12:09;7.82;46.66
61351;DHT22;47119;49.130;9.218;2023-02-27T11:14:48;7.74;46.50
61351;DHT22;47119;49.130;9.218;2023-02-27T11:17:23;7.62;46.53
61351;DHT22;47119;49.130;9.218;2023-02-27T11:19:53;7.72;46.52
61351;DHT22;47119;49.130;9.218;2023-02-27T11:22:24;7.72;46.25
61351;DHT22;47119;49.130;9.218;2023-02-27T11:25:17;7.59;45.69
61351;DHT22;47119;49.130;9.218;2023-02-27T11:27:46;7.64;45.82
61351;DHT22;47119;49.130;9.218;2023-02-27T11:30:22;7.52;45.73
61351;DHT22;47119;49.130;9.218;2023-02-27T11:32:54;7.37;45.23
61351;DHT22;47119;49.130;9.218;2023-02-27T11:35:25;7.43;45.65
61351;DHT22;47119;49.130;9.218;2023-02-27T11:37:58;7.47;45.91
61351;DHT22;47119;49.130;9.218;2023-02-27T11:40:30;7.68;46.12
61351;DHT22;47119;49.130;9.218;2023-02-27T11:43:01;7.89;46.49
61351;DHT22;47119;49.130;9.218;2023-02-27T11:45:31;7.92;46.13
61351;DHT22;47119;49.130;9.218;2023-02-27T11:48:07;7.89;45.66
61351;DHT22;47119;49.130;9.218;2023-02-27T11:50:47;8.03;46.14
61351;DHT22;47119;49.130;9.218;2023-02-27T11:53:48;8.25;46.09
61351;DHT22;47119;49.130;9.218;2023-02-27T11:56:36;8.23;45.33
61351;DHT22;47119;49.130;9.218;2023-02-27T11:59:16;8.38;45.94
61351;DHT22;47119;49.130;9.218;2023-02-27T12:01:53;8.38;45.51
61351;DHT22;47119;49.130;9.218;2023-02-27T12:04:30;8.27;44.80
61351;DHT22;47119;49.130;9.218;2023-02-27T12:07:12;8.19;44.44
61351;DHT22;47119;49.130;9.218;2023-02-27T12:09:50;8.00;43.35
61351;DHT22;47119;49.130;9.218;2023-02-27T12:12:28;8.07;44.47
61351;DHT22;47119;49.130;9.218;2023-02-27T12:15:09;8.27;44.52
61351;DHT22;47119;49.130;9.218;2023-02-27T12:17:48;8.10;44.36
61351;DHT22;47119;49.130;9.218;2023-02-27T12:20:27;8.12;43.68
61351;DHT22;47119;49.130;9.218;2023-02-27T12:23:07;8.03;43.83
61351;DHT22;47119;49.130;9.218;2023-02-27T12:25:48;7.99;43.50
61351;DHT22;47119;49.130;9.218;2023-02-27T12:28:42;7.93;43.36
61351;DHT22;47119;49.130;9.218;2023-02-27T12:31:44;8.17;44.52
61351;DHT22;47119;49.130;9.218;2023-02-27T12:34:26;8.30;44.86
61351;DHT22;47119;49.130;9.218;2023-02-27T12:37:04;8.32;44.39
61351;DHT22;47119;49.130;9.218;2023-02-27T12:39:42;8.16;43.50
61351;DHT22;47119;49.130;9.218;2023-02-27T12:42:34;8.20;44.25
61351;DHT22;47119;49.130;9.218;2023-02-27T12:45:33;8.14;43.60
61351;DHT22;47119;49.130;9.218;2023-02-27T12:48:36;8.16;44.22
61351;DHT22;47119;49.130;9.218;2023-02-27T12:51:34;8.13;43.93
61351;DHT22;47119;49.130;9.218;2023-02-27T12:54:18;8.17;44.16
61351;DHT22;47119;49.130;9.218;2023-02-27T12:57:04;8.22;44.77
61351;DHT22;47119;49.130;9.218;2023-02-27T12:59:56;8.26;44.91
61351;DHT22;47119;49.130;9.218;2023-02-27T13:02:52;8.19;43.91
61351;DHT22;47119;49.130;9.218;2023-02-27T13:05:35;7.89;43.82
61351;DHT22;47119;49.130;9.218;2023-02-27T13:08:28;8.00;44.20
61351;DHT22;47119;49.130;9.218;2023-02-27T13:11:17;7.90;43.87
61351;DHT22;47119;49.130;9.218;2023-02-27T13:13:53;7.85;43.46
61351;DHT22;47119;49.130;9.218;2023-02-27T13:16:30;7.79;43.42
61351;DHT22;47119;49.130;9.218;2023-02-27T13:19:03;7.88;43.35
61351;DHT22;47119;49.130;9.218;2023-02-27T13:21:42;7.85;43.10
61351;DHT22;47119;49.130;9.218;2023-02-27T13:24:24;8.02;44.01
61351;DHT22;47119;49.130;9.218;2023-02-27T13:26:58;8.02;43.51
61351;DHT22;47119;49.130;9.218;2023-02-27T13:29:35;8.09;43.67
61351;DHT22;47119;49.130;9.218;2023-02-27T13:32:17;8.10;43.33
61351;DHT22;47119;49.130;9.218;2023-02-27T13:34:57;8.20;43.72
61351;DHT22;47119;49.130;9.218;2023-02-27T13:37:51;8.17;43.18
61351;DHT22;47119;49.130;9.218;2023-02-27T13:40:33;8.25;43.89
61351;DHT22;47119;49.130;9.218;2023-02-27T13:43:31;8.23;43.76
61351;DHT22;47119;49.130;9.218;2023-02-27T13:46:38;8.26;43.75
61351;DHT22;47119;49.130;9.218;2023-02-27T13:49:23;8.16;43.60
61351;DHT22;47119;49.130;9.218;2023-02-27T13:51:55;7.96;43.29
61351;DHT22;47119;49.130;9.218;2023-02-27T13:54:31;7.89;43.06
61351;DHT22;47119;49.130;9.218;2023-02-27T13:57:16;7.86;42.76
61351;DHT22;47119;49.130;9.218;2023-02-27T14:00:04;7.75;42.29
61351;DHT22;47119;49.130;9.218;2023-02-27T14:02:44;7.83;42.49
61351;DHT22;47119;49.130;9.218;2023-02-27T14:05:28;7.92;42.98
61351;DHT22;47119;49.130;9.218;2023-02-27T14:08:04;7.90;42.53
61351;DHT22;47119;49.130;9.218;2023-02-27T14:10:39;7.99;42.74
61351;DHT22;47119;49.130;9.218;2023-02-27T14:16:56;8.12;42.53
61351;DHT22;47119;49.130;9.218;2023-02-27T14:19:47;7.95;42.47
61351;DHT22;47119;49.130;9.218;2023-02-27T14:25:40;8.30;43.44
61351;DHT22;47119;49.130;9.218;2023-02-27T14:28:20;8.27;42.99
61351;DHT22;47119;49.130;9.218;2023-02-27T14:30:56;8.27;43.34
61351;DHT22;47119;49.130;9.218;2023-02-27T14:33:29;8.12;42.71
61351;DHT22;47119;49.130;9.218;2023-02-27T14:36:12;7.96;42.55
61351;DHT22;47119;49.130;9.218;2023-02-27T14:38:47;7.96;42.67
61351;DHT22;47119;49.130;9.218;2023-02-27T14:41:27;7.89;42.18
61351;DHT22;47119;49.130;9.218;2023-02-27T14:44:17;7.79;41.85
61351;DHT22;47119;49.130;9.218;2023-02-27T14:46:46;7.74;42.06
61351;DHT22;47119;49.130;9.218;2023-02-27T14:49:18;7.78;41.84
61351;DHT22;47119;49.130;9.218;2023-02-27T14:51:49;7.76;42.10
61351;DHT22;47119;49.130;9.218;2023-02-27T14:54:25;7.96;42.49
61351;DHT22;47119;49.130;9.218;2023-02-27T14:56:54;7.99;42.24
61351;DHT22;47119;49.130;9.218;2023-02-27T14:59:24;7.92;42.07
61351;DHT22;47119;49.130;9.218;2023-02-27T15:01:54;8.05;43.02
61351;DHT22;47119;49.130;9.218;2023-02-27T15:04:25;8.10;42.68
61351;DHT22;47119;49.130;9.218;2023-02-27T15:06:55;8.16;43.00
61351;DHT22;47119;49.130;9.218;2023-02-27T15:09:31;8.23;43.13
61351;DHT22;47119;49.130;9.218;2023-02-27T15:12:01;8.26;43.03
61351;DHT22;47119;49.130;9.218;2023-02-27T15:14:30;8.23;43.10
61351;DHT22;47119;49.130;9.218;2023-02-27T15:19:46;8.19;42.45
61351;DHT22;47119;49.130;9.218;2023-02-27T15:22:16;8.23;42.73
61351;DHT22;47119;49.130;9.218;2023-02-27T15:24:47;8.30;42.79
61351;DHT22;47119;49.130;9.218;2023-02-27T15:27:16;8.23;42.58
61351;DHT22;47119;49.130;9.218;2023-02-27T15:29:48;8.19;42.81
61351;DHT22;47119;49.130;9.218;2023-02-27T15:32:23;7.90;41.88
61351;DHT22;47119;49.130;9.218;2023-02-27T15:34:53;8.12;42.70
61351;DHT22;47119;49.130;9.218;2023-02-27T15:37:23;8.00;42.64
61351;DHT22;47119;49.130;9.218;2023-02-27T15:39:54;8.06;42.64
61351;DHT22;47119;49.130;9.218;2023-02-27T15:42:26;8.05;42.32
61351;DHT22;47119;49.130;9.218;2023-02-27T15:44:56;7.81;42.19
61351;DHT22;47119;49.130;9.218;2023-02-27T15:47:26;7.89;42.33
61351;DHT22;47119;49.130;9.218;2023-02-27T15:49:58;7.96;42.39
61351;DHT22;47119;49.130;9.218;2023-02-27T15:52:32;7.88;41.76
61351;DHT22;47119;49.130;9.218;2023-02-27T15:55:14;8.03;41.90
61351;DHT22;47119;49.130;9.218;2023-02-27T15:57:43;8.02;42.25
61351;DHT22;47119;49.130;9.218;2023-02-27T16:00:15;8.05;42.46
61351;DHT22;47119;49.130;9.218;2023-02-27T16:02:49;7.95;42.68
61351;DHT22;47119;49.130;9.218;2023-02-27T16:05:19;8.06;42.75
61351;DHT22;47119;49.130;9.218;2023-02-27T16:07:49;8.10;43.24
61351;DHT22;47119;49.130;9.218;2023-02-27T16:10:23;8.07;42.84
61351;DHT22;47119;49.130;9.218;2023-02-27T16:12:54;8.07;42.51
61351;DHT22;47119;49.130;9.218;2023-02-27T16:15:25;8.12;43.27
61351;DHT22;47119;49.130;9.218;2023-02-27T16:17:58;8.13;43.04
61351;DHT22;47119;49.130;9.218;2023-02-27T16:20:39;8.14;42.67
61351;DHT22;47119;49.130;9.218;2023-02-27T16:23:17;8.20;42.91
61351;DHT22;47119;49.130;9.218;2023-02-27T16:26:27;8.19;43.17
61351;DHT22;47119;49.130;9.218;2023-02-27T16:29:00;8.25;42.79
61351;DHT22;47119;49.130;9.218;2023-02-27T16:31:30;8.29;43.16
61351;DHT22;47119;49.130;9.218;2023-02-27T16:34:00;8.23;42.39
61351;DHT22;47119;49.130;9.218;2023-02-27T16:36:39;8.29;43.15
61351;DHT22;47119;49.130;9.218;2023-02-27T16:39:11;8.27;42.50
61351;DHT22;47119;49.130;9.218;2023-02-27T16:41:40;8.23;42.64
61351;DHT22;47119;49.130;9.218;2023-02-27T16:44:12;8.22;43.03
61351;DHT22;47119;49.130;9.218;2023-02-27T16:46:39;8.22;42.62
61351;DHT22;47119;49.130;9.218;2023-02-27T16:49:17;8.22;42.44
61351;DHT22;47119;49.130;9.218;2023-02-27T16:51:49;8.17;43.39
61351;DHT22;47119;49.130;9.218;2023-02-27T16:54:16;8.17;42.61
61351;DHT22;47119;49.130;9.218;2023-02-27T16:56:46;8.26;43.00
61351;DHT22;47119;49.130;9.218;2023-02-27T16:59:27;8.26;43.09
61351;DHT22;47119;49.130;9.218;2023-02-27T17:01:59;8.09;42.73
61351;DHT22;47119;49.130;9.218;2023-02-27T17:04:28;8.00;42.39
61351;DHT22;47119;49.130;9.218;2023-02-27T17:06:59;8.12;43.46
61351;DHT22;47119;49.130;9.218;2023-02-27T17:09:30;8.23;43.29
61351;DHT22;47119;49.130;9.218;2023-02-27T17:12:01;8.26;43.34
61351;DHT22;47119;49.130;9.218;2023-02-27T17:14:33;8.16;43.12
61351;DHT22;47119;49.130;9.218;2023-02-27T17:17:02;8.20;43.34
61351;DHT22;47119;49.130;9.218;2023-02-27T17:19:29;8.22;43.47
61351;DHT22;47119;49.130;9.218;2023-02-27T17:21:56;8.26;43.51
61351;DHT22;47119;49.130;9.218;2023-02-27T17:24:28;8.26;43.22
61351;DHT22;47119;49.130;9.218;2023-02-27T17:26:55;8.10;43.20
61351;DHT22;47119;49.130;9.218;2023-02-27T17:29:24;8.07;43.74
61351;DHT22;47119;49.130;9.218;2023-02-27T17:31:53;8.14;43.54
61351;DHT22;47119;49.130;9.218;2023-02-27T17:34:24;8.23;43.73
61351;DHT22;47119;49.130;9.218;2023-02-27T17:36:51;8.26;43.66
61351;DHT22;47119;49.130;9.218;2023-02-27T17:39:21;8.30;44.01
61351;DHT22;47119;49.130;9.218;2023-02-27T17:41:48;8.22;43.25
61351;DHT22;47119;49.130;9.218;2023-02-27T17:44:19;8.25;43.93
61351;DHT22;47119;49.130;9.218;2023-02-27T17:46:52;8.26;44.20
61351;DHT22;47119;49.130;9.218;2023-02-27T17:49:52;8.34;43.92
61351;DHT22;47119;49.130;9.218;2023-02-27T18:00:41;8.25;43.44
61351;DHT22;47119;49.130;9.218;2023-02-27T18:03:37;8.22;43.37
61351;DHT22;47119;49.130;9.218;2023-02-27T18:06:15;8.12;43.46
61351;DHT22;47119;49.130;9.218;2023-02-27T18:09:12;8.09;43.54
61351;DHT22;47119;49.130;9.218;2023-02-27T18:12:13;8.20;43.26
61351;DHT22;47119;49.130;9.218;2023-02-27T18:14:40;8.14;43.96
61351;DHT22;47119;49.130;9.218;2023-02-27T18:17:07;8.14;43.72
61351;DHT22;47119;49.130;9.218;2023-02-27T18:20:06;7.99;43.59
61351;DHT22;47119;49.130;9.218;2023-02-27T19:59:27;7.90;44.69
61351;DHT22;47119;49.130;9.218;2023-02-27T20:01:57;7.92;44.90
61351;DHT22;47119;49.130;9.218;2023-02-27T20:27:53;7.82;45.39
61351;DHT22;47119;49.130;9.218;2023-02-27T20:30:20;7.81;45.77
61351;DHT22;47119;49.130;9.218;2023-02-27T20:32:48;7.83;45.54
61351;DHT22;47119;49.130;9.218;2023-02-27T20:38:18;7.71;45.43